Time;durP1;ratioP1;P1;durP2;ratioP2;P2;SDS_P1;SDS_P2;PMS_P1;PMS_P2;Temp;Humidity;BMP_temperature;BMP_pressure;BME280_temperature;BME280_humidity;BME280_pressure;Samples;Min_cycle;Max_cycle;Signal;HPM_P1;HPM_P2
2023/10/13 00:03:16;;;;;;;20.80;6.20;;;;;;;10.47;91.41;100287.28;670544;1265;139104;-81
2023/10/13 00:18:19;;;;;;;12.20;6.30;;;;;;;10.12;92.19;100305.31;668675;1270;140636;-81
2023/10/13 00:33:23;;;;;;;19.10;7.40;;;;;;;9.83;93.20;100307.62;668391;1264;139843;-81
2023/10/13 00:48:54;;;;;;;16.50;5.70;;;;;;;9.78;93.25;100329.50;668362;1273;139084;-81
2023/10/13 01:04:08;;;;;;;12.10;5.70;;;;;;;9.75;94.41;100335.71;668358;1263;141518;-81
2023/10/13 01:19:20;;;;;;;21.50;8.10;;;;;;;9.67;93.51;100328.30;670448;1262;139666;-81
2023/10/13 01:34:24;;;;;;;14.80;6.90;;;;;;;9.57;94.31;100336.86;668517;1264;139043;-81
2023/10/13 01:49:27;;;;;;;16.20;6.40;;;;;;;9.38;95.33;100355.48;668418;1260;140621;-81
2023/10/13 02:04:42;;;;;;;21.30;8.60;;;;;;;9.43;95.53;100339.00;672874;1261;139983;-82
2023/10/13 02:19:46;;;;;;;24.10;8.40;;;;;;;9.18;92.86;100341.93;672868;1264;139737;-81
2023/10/13 02:34:50;;;;;;;15.40;7.50;;;;;;;8.76;92.28;100348.05;673937;1259;140522;-82
2023/10/13 02:49:53;;;;;;;25.00;10.90;;;;;;;8.60;92.16;100353.55;672997;1264;139647;-81
2023/10/13 03:05:09;;;;;;;22.00;9.50;;;;;;;8.46;91.82;100352.80;672732;1262;140668;-81
2023/10/13 03:20:22;;;;;;;22.70;8.30;;;;;;;8.37;90.28;100344.83;673645;1273;140242;-81
2023/10/13 03:35:42;;;;;;;21.30;9.90;;;;;;;8.24;91.08;100362.39;671565;1263;138899;-81
2023/10/13 03:51:03;;;;;;;42.20;15.30;;;;;;;8.20;90.03;100375.36;672957;1278;138877;-82
2023/10/13 04:06:08;;;;;;;58.90;29.70;;;;;;;7.94;89.52;100380.00;673193;1266;140400;-83
2023/10/13 04:36:45;;;;;;;21.10;13.30;;;;;;;7.68;88.14;100371.94;675852;1262;138804;-82
2023/10/13 04:52:13;;;;;;;22.20;11.40;;;;;;;7.46;88.08;100375.14;675382;1259;139737;-83
2023/10/13 06:39:36;;;;;;;43.40;27.30;;;;;;;9.69;87.73;100383.35;670237;1262;139398;-80
2023/10/13 06:54:41;;;;;;;53.40;30.60;;;;;;;11.61;87.72;100391.63;668857;1262;139347;-80
2023/10/13 07:10:07;;;;;;;44.10;23.50;;;;;;;11.82;85.41;100407.45;669491;1262;139156;-81
2023/10/13 07:25:08;;;;;;;37.90;20.70;;;;;;;11.78;87.76;100406.98;668467;1275;139503;-82
2023/10/13 07:40:39;;;;;;;15.60;7.90;;;;;;;13.75;90.57;100401.33;670357;1264;140358;-81
2023/10/13 07:55:38;;;;;;;13.60;6.70;;;;;;;17.24;85.17;100383.83;672420;1266;139457;-82
2023/10/13 08:10:45;;;;;;;12.30;5.80;;;;;;;18.60;76.78;100377.66;672923;1262;139778;-81
2023/10/13 08:56:34;;;;;;;6.20;2.90;;;;;;;19.02;63.96;100361.10;672463;1261;139012;-81
2023/10/13 09:12:25;;;;;;;12.00;3.20;;;;;;;18.26;65.13;100337.65;667777;1264;139005;-81
2023/10/13 09:27:04;;;;;;;9.70;3.50;;;;;;;18.20;65.72;100317.83;671065;1264;139643;-82
2023/10/13 09:42:10;;;;;;;10.60;3.90;;;;;;;17.82;65.76;100313.36;671969;1259;138637;-81
2023/10/13 09:57:24;;;;;;;11.70;4.30;;;;;;;16.98;67.62;100300.81;673996;1264;138955;-80
2023/10/13 10:12:52;;;;;;;26.80;14.10;;;;;;;16.98;69.47;100276.56;671787;1262;138448;-81
2023/10/13 10:28:00;;;;;;;14.40;5.90;;;;;;;16.69;72.94;100257.41;672462;1274;140352;-81
2023/10/13 10:43:08;;;;;;;16.00;6.30;;;;;;;16.73;75.83;100228.52;673238;1262;139711;-81
2023/10/13 10:58:43;;;;;;;18.60;8.00;;;;;;;16.91;77.95;100204.77;674308;1262;140824;-81
2023/10/13 11:14:03;;;;;;;13.20;7.30;;;;;;;16.86;82.27;100179.84;670615;1262;140642;-81
2023/10/13 11:29:10;;;;;;;22.40;9.00;;;;;;;17.07;85.66;100162.98;670820;1262;140244;-80
2023/10/13 11:44:23;;;;;;;30.40;11.90;;;;;;;17.13;89.67;100136.71;670095;1262;140863;-81
2023/10/13 11:59:28;;;;;;;26.60;13.20;;;;;;;17.36;91.27;100101.44;671275;1265;141219;-81
2023/10/13 12:14:38;;;;;;;24.80;13.00;;;;;;;17.50;91.71;100092.19;672913;1260;140190;-81
2023/10/13 12:29:46;;;;;;;31.50;13.30;;;;;;;17.78;92.07;100067.98;672830;1275;139653;-82
2023/10/13 13:00:25;;;;;;;41.70;21.90;;;;;;;17.90;94.14;100013.02;672268;1262;139402;-79
2023/10/13 13:15:29;;;;;;;24.90;14.70;;;;;;;18.40;93.37;100002.77;668065;1262;140132;-79
2023/10/13 13:30:34;;;;;;;34.30;15.40;;;;;;;18.61;94.39;99987.06;668430;1262;140300;-80
2023/10/13 13:45:41;;;;;;;30.50;15.90;;;;;;;18.77;95.04;99948.69;668363;1263;139393;-79
2023/10/13 14:00:48;;;;;;;36.20;17.70;;;;;;;18.67;97.37;99914.77;669890;1265;139707;-79
2023/10/13 14:15:56;;;;;;;30.70;17.70;;;;;;;18.35;99.75;99882.94;668510;1262;139790;-78
2023/10/13 14:30:59;;;;;;;34.00;19.40;;;;;;;18.14;100.00;99856.88;668515;1263;139623;-80
2023/10/13 14:46:08;;;;;;;40.30;20.60;;;;;;;18.11;100.00;99824.57;668367;1270;140502;-80
2023/10/13 15:01:17;;;;;;;33.30;20.40;;;;;;;18.20;100.00;99794.06;668098;1266;139344;-81
2023/10/13 16:00:29;;;;;;;40.70;26.00;;;;;;;18.85;100.00;99728.65;653418;1289;563318;-80
2023/10/13 16:15:40;;;;;;;33.50;20.40;;;;;;;19.00;100.00;99710.92;662489;1273;138957;-81
2023/10/13 16:30:45;;;;;;;30.20;19.30;;;;;;;19.07;100.00;99681.48;664007;1275;139726;-81
2023/10/13 16:45:49;;;;;;;28.30;17.50;;;;;;;19.15;100.00;99650.11;662792;1276;138992;-80
2023/10/13 17:00:53;;;;;;;31.70;18.60;;;;;;;19.38;100.00;99625.20;663455;1275;138706;-81
2023/10/13 17:15:59;;;;;;;27.50;16.90;;;;;;;19.62;100.00;99614.02;670965;1277;139509;-80
2023/10/13 17:31:02;;;;;;;35.90;20.10;;;;;;;19.71;100.00;99608.63;672424;1272;139738;-80
2023/10/13 17:46:07;;;;;;;23.80;14.50;;;;;;;19.95;100.00;99569.30;667020;1278;141230;-80
2023/10/13 18:01:19;;;;;;;31.00;17.70;;;;;;;20.06;100.00;99551.02;667906;1269;139470;-80
2023/10/13 18:16:26;;;;;;;19.80;13.60;;;;;;;19.94;100.00;99536.71;668642;1273;138769;-80
2023/10/13 18:31:30;;;;;;;21.30;12.90;;;;;;;20.05;100.00;99523.24;666984;1269;140443;-81
2023/10/13 18:46:36;;;;;;;20.30;12.00;;;;;;;20.04;100.00;99498.41;669171;1268;139353;-80
2023/10/13 19:01:39;;;;;;;18.80;11.50;;;;;;;20.20;100.00;99479.80;669789;1268;139208;-79
2023/10/13 19:16:46;;;;;;;16.70;10.60;;;;;;;20.12;100.00;99470.92;667201;1282;140189;-79
2023/10/13 19:31:49;;;;;;;21.10;10.60;;;;;;;20.32;100.00;99458.06;669376;1269;139287;-79
2023/10/13 19:46:53;;;;;;;17.50;10.40;;;;;;;20.41;100.00;99454.73;671661;1274;141882;-80
2023/10/13 20:01:56;;;;;;;16.60;10.20;;;;;;;20.55;100.00;99445.50;670696;1264;139618;-80
2023/10/13 20:16:59;;;;;;;18.20;8.90;;;;;;;20.72;100.00;99438.64;673280;1265;140277;-80
2023/10/13 20:32:02;;;;;;;14.50;7.90;;;;;;;20.64;100.00;99419.74;672557;1264;139512;-79
2023/10/13 20:47:06;;;;;;;15.10;8.30;;;;;;;20.68;99.54;99415.20;678326;1272;139339;-80
2023/10/13 21:02:11;;;;;;;15.20;6.90;;;;;;;20.91;97.77;99408.96;669721;1261;139804;-79
2023/10/13 21:17:14;;;;;;;11.20;7.10;;;;;;;20.99;96.29;99384.66;671630;1276;137771;-80
2023/10/13 21:32:18;;;;;;;11.90;7.50;;;;;;;21.16;95.08;99378.55;670671;1276;138998;-81
2023/10/13 21:47:24;;;;;;;9.30;6.50;;;;;;;21.36;93.24;99358.46;672769;1273;138878;-78
2023/10/13 22:02:27;;;;;;;16.00;7.50;;;;;;;21.39;92.27;99334.98;677963;1273;138657;-79
2023/10/13 22:17:33;;;;;;;11.10;6.30;;;;;;;21.40;91.81;99319.90;670248;1261;139547;-79
2023/10/13 22:32:40;;;;;;;10.30;6.70;;;;;;;21.38;91.71;99313.54;671436;1264;139679;-79
2023/10/13 22:47:47;;;;;;;15.80;6.50;;;;;;;21.31;91.69;99289.75;671331;1269;139313;-80
2023/10/13 23:02:51;;;;;;;11.10;6.90;;;;;;;21.43;90.54;99277.70;668828;1264;139385;-80
2023/10/13 23:17:55;;;;;;;16.40;7.10;;;;;;;21.42;90.31;99284.13;669149;1260;139544;-79
2023/10/13 23:32:58;;;;;;;10.50;6.60;;;;;;;21.48;89.82;99270.84;669436;1264;139319;-79
2023/10/13 23:48:02;;;;;;;15.00;6.50;;;;;;;21.54;89.21;99257.96;671802;1273;139476;-79
